createdAt,value
2019-05-03T00:02:18.098Z,99.90
2019-05-03T00:04:47.122Z,99.90
2019-05-03T00:07:14.434Z,99.90
2019-05-03T00:09:42.683Z,99.90
2019-05-03T00:12:09.952Z,99.90
2019-05-03T00:14:41.607Z,99.90
2019-05-03T00:17:09.147Z,99.90
2019-05-03T00:19:36.634Z,99.90
2019-05-03T00:22:03.835Z,99.90
2019-05-03T00:24:32.144Z,99.90
2019-05-03T00:27:01.918Z,99.90
2019-05-03T00:29:29.814Z,99.90
2019-05-03T00:31:57.044Z,99.90
2019-05-03T00:34:29.216Z,99.90
2019-05-03T00:36:58.599Z,99.90
2019-05-03T00:39:34.176Z,99.90
2019-05-03T00:42:02.760Z,99.90
2019-05-03T00:44:31.715Z,99.90
2019-05-03T00:46:59.174Z,99.90
2019-05-03T00:49:26.797Z,99.90
2019-05-03T00:51:54.087Z,99.90
2019-05-03T00:54:22.295Z,99.90
2019-05-03T00:56:49.715Z,99.90
2019-05-03T00:59:17.510Z,99.90
2019-05-03T01:01:44.639Z,99.90
2019-05-03T01:04:12.459Z,99.90
2019-05-03T01:06:40.038Z,99.90
2019-05-03T01:09:14.829Z,99.90
2019-05-03T01:11:42.157Z,99.90
2019-05-03T01:14:11.897Z,99.90
2019-05-03T01:16:39.531Z,99.90
2019-05-03T01:19:07.087Z,99.90
2019-05-03T01:21:34.928Z,99.90
2019-05-03T01:24:02.238Z,99.90
2019-05-03T01:26:31.826Z,99.90
2019-05-03T01:28:59.189Z,99.90
2019-05-03T01:31:26.754Z,99.90
2019-05-03T01:33:54.620Z,99.90
2019-05-03T01:36:22.819Z,99.90
2019-05-03T01:38:52.990Z,99.90
2019-05-03T01:41:21.635Z,99.90
2019-05-03T01:43:49.907Z,99.90
2019-05-03T01:46:17.394Z,99.90
2019-05-03T01:49:03.141Z,99.90
2019-05-03T01:51:48.711Z,99.90
2019-05-03T01:54:15.966Z,99.90
2019-05-03T01:56:55.494Z,99.90
2019-05-03T01:59:12.388Z,99.90
2019-05-03T02:01:47.489Z,99.90
2019-05-03T02:04:24.588Z,99.90
2019-05-03T02:06:52.418Z,99.90
2019-05-03T02:09:21.549Z,99.90
2019-05-03T02:11:49.391Z,99.90
2019-05-03T02:14:17.926Z,99.90
2019-05-03T02:16:45.506Z,99.90
2019-05-03T02:19:13.179Z,99.90
2019-05-03T02:21:41.665Z,99.90
2019-05-03T02:24:09.313Z,99.90
2019-05-03T02:26:36.787Z,99.90
2019-05-03T02:29:04.273Z,99.90
2019-05-03T02:31:32.805Z,99.90
2019-05-03T02:34:03.274Z,99.90
2019-05-03T02:36:29.602Z,99.90
2019-05-03T02:38:57.263Z,99.90
2019-05-03T02:41:24.540Z,99.90
2019-05-03T02:43:55.802Z,99.90
2019-05-03T02:46:38.424Z,99.90
2019-05-03T02:49:25.925Z,99.90
2019-05-03T02:51:55.462Z,99.90
2019-05-03T02:54:22.931Z,99.90
2019-05-03T02:56:50.798Z,99.90
2019-05-03T02:59:18.439Z,99.90
2019-05-03T03:01:46.483Z,99.90
2019-05-03T03:04:15.673Z,99.90
2019-05-03T03:06:46.096Z,99.90
2019-05-03T03:09:16.548Z,99.90
2019-05-03T03:11:45.966Z,99.90
2019-05-03T03:14:16.724Z,99.90
2019-05-03T03:16:49.090Z,99.90
2019-05-03T03:19:16.779Z,99.90
2019-05-03T03:21:47.555Z,99.90
2019-05-03T03:24:18.966Z,99.90
2019-05-03T03:26:48.551Z,99.90
2019-05-03T03:29:17.867Z,99.90
2019-05-03T03:32:18.680Z,99.90
2019-05-03T03:35:00.609Z,99.90
2019-05-03T03:37:22.728Z,99.90
2019-05-03T03:39:50.067Z,99.90
2019-05-03T03:42:19.175Z,99.90
2019-05-03T03:44:47.928Z,99.90
2019-05-03T03:47:16.642Z,99.90
2019-05-03T03:49:46.396Z,99.90
2019-05-03T03:52:16.056Z,99.90
2019-05-03T03:54:45.848Z,99.90
2019-05-03T03:57:16.093Z,99.90
2019-05-03T03:59:45.490Z,99.90
2019-05-03T04:02:15.922Z,99.90
2019-05-03T04:04:45.104Z,99.90
2019-05-03T04:07:15.655Z,99.90
2019-05-03T04:09:45.380Z,99.90
2019-05-03T04:12:12.794Z,99.90
2019-05-03T04:14:56.363Z,99.90
2019-05-03T04:17:56.606Z,99.90
2019-05-03T04:20:28.280Z,99.90
2019-05-03T04:22:56.140Z,99.90
2019-05-03T04:25:26.200Z,99.90
2019-05-03T04:27:55.944Z,99.90
2019-05-03T04:30:25.430Z,99.90
2019-05-03T04:32:56.185Z,99.90
2019-05-03T04:35:22.677Z,99.90
2019-05-03T04:37:50.256Z,99.90
2019-05-03T04:40:17.462Z,99.90
2019-05-03T04:42:46.449Z,99.90
2019-05-03T04:45:16.269Z,99.90
2019-05-03T04:47:46.082Z,99.90
2019-05-03T04:50:12.972Z,99.90
2019-05-03T04:52:40.842Z,99.90
2019-05-03T04:55:08.175Z,99.90
2019-05-03T04:57:44.227Z,99.90
2019-05-03T05:00:07.004Z,99.90
2019-05-03T05:02:35.554Z,99.90
2019-05-03T05:05:05.828Z,99.90
2019-05-03T05:07:35.084Z,99.90
2019-05-03T05:10:05.160Z,99.90
2019-05-03T05:12:32.406Z,99.90
2019-05-03T05:14:59.970Z,99.90
2019-05-03T05:17:50.679Z,99.90
2019-05-03T05:20:35.061Z,99.90
2019-05-03T05:23:04.578Z,99.90
2019-05-03T05:25:36.258Z,99.90
2019-05-03T05:28:18.826Z,99.90
2019-05-03T05:30:46.723Z,99.90
2019-05-03T05:33:19.706Z,99.90
2019-05-03T05:35:47.694Z,99.90
2019-05-03T05:38:16.087Z,99.90
2019-05-03T05:40:45.089Z,99.90
2019-05-03T05:43:12.878Z,99.90
2019-05-03T05:45:40.098Z,99.90
2019-05-03T05:48:09.730Z,99.90
2019-05-03T05:50:40.214Z,99.90
2019-05-03T05:53:07.424Z,99.90
2019-05-03T05:55:52.236Z,99.90
2019-05-03T05:58:34.639Z,99.90
2019-05-03T06:01:16.383Z,99.90
2019-05-03T06:03:44.882Z,99.90
2019-05-03T06:06:17.755Z,99.90
2019-05-03T06:09:09.715Z,99.90
2019-05-03T06:11:47.694Z,99.90
2019-05-03T06:14:19.359Z,99.90
2019-05-03T06:17:05.359Z,99.90
2019-05-03T06:19:55.485Z,99.90
2019-05-03T06:22:49.474Z,99.90
2019-05-03T06:25:30.690Z,99.90
2019-05-03T06:27:59.634Z,99.90
2019-05-03T06:30:48.800Z,99.90
2019-05-03T06:33:16.343Z,99.90
2019-05-03T06:35:44.536Z,99.90
2019-05-03T06:38:12.726Z,99.90
2019-05-03T06:40:39.988Z,99.90
2019-05-03T06:43:11.199Z,99.90
2019-05-03T06:45:41.127Z,99.90
2019-05-03T06:48:06.378Z,99.90
2019-05-03T06:50:34.779Z,99.90
2019-05-03T06:53:05.889Z,99.90
2019-05-03T06:55:31.763Z,99.90
2019-05-03T06:57:58.987Z,99.90
2019-05-03T07:00:55.399Z,99.90
2019-05-03T07:03:44.691Z,99.90
2019-05-03T07:06:36.375Z,99.90
2019-05-03T07:09:14.447Z,99.90
2019-05-03T07:11:45.049Z,99.90
2019-05-03T07:14:11.996Z,99.90
2019-05-03T07:16:39.322Z,99.90
2019-05-03T07:19:07.203Z,99.90
2019-05-03T07:21:35.436Z,99.90
2019-05-03T07:24:05.289Z,99.90
2019-05-03T07:26:34.420Z,99.90
2019-05-03T07:29:01.760Z,99.90
2019-05-03T07:31:29.386Z,99.90
2019-05-03T07:33:56.967Z,99.90
2019-05-03T07:40:25.524Z,99.90
2019-05-03T07:42:52.899Z,99.90
2019-05-03T07:45:20.270Z,99.90
2019-05-03T07:47:47.704Z,99.90
2019-05-03T07:50:15.407Z,99.90
2019-05-03T07:52:45.121Z,99.90
2019-05-03T07:55:14.841Z,99.90
2019-05-03T07:57:50.619Z,99.90
2019-05-03T08:00:22.006Z,99.90
2019-05-03T08:02:49.199Z,99.90
2019-05-03T08:05:16.422Z,99.90
2019-05-03T08:07:44.470Z,99.90
2019-05-03T08:10:15.297Z,99.90
2019-05-03T08:12:45.132Z,99.90
2019-05-03T08:15:12.931Z,99.90
2019-05-03T08:17:40.380Z,99.90
2019-05-03T08:20:07.951Z,99.90
2019-05-03T08:22:35.815Z,99.90
2019-05-03T08:25:05.469Z,99.90
2019-05-03T08:27:35.355Z,99.90
2019-05-03T08:30:05.481Z,99.90
2019-05-03T08:32:51.812Z,99.90
2019-05-03T08:35:25.595Z,99.90
2019-05-03T08:37:55.331Z,99.90
2019-05-03T08:40:24.818Z,99.90
2019-05-03T08:42:54.837Z,99.90
2019-05-03T08:45:22.684Z,99.90
2019-05-03T08:47:49.945Z,99.90
2019-05-03T08:50:21.335Z,99.90
2019-05-03T08:52:48.022Z,99.90
2019-05-03T08:55:16.032Z,99.90
2019-05-03T08:57:44.754Z,99.90
2019-05-03T09:00:15.563Z,99.90
2019-05-03T09:02:44.770Z,99.90
2019-05-03T09:05:12.682Z,99.90
2019-05-03T09:07:39.918Z,99.90
2019-05-03T09:10:17.078Z,99.90
2019-05-03T09:13:04.163Z,99.90
2019-05-03T09:15:34.984Z,99.90
2019-05-03T09:18:04.650Z,99.90
2019-05-03T09:20:32.450Z,99.90
2019-05-03T09:23:00.534Z,99.90
2019-05-03T09:25:28.446Z,99.90
2019-05-03T09:27:56.299Z,99.90
2019-05-03T09:30:25.123Z,99.90
2019-05-03T09:32:52.750Z,99.90
2019-05-03T09:35:29.769Z,99.90
2019-05-03T09:37:49.148Z,99.90
2019-05-03T09:40:16.327Z,99.90
2019-05-03T09:42:44.526Z,99.90
2019-05-03T09:45:12.626Z,99.90
2019-05-03T09:47:40.511Z,99.90
2019-05-03T09:50:08.198Z,99.90
2019-05-03T09:52:36.828Z,99.90
2019-05-03T09:55:07.234Z,99.90
2019-05-03T09:57:34.802Z,99.90
2019-05-03T10:00:04.945Z,99.90
2019-05-03T10:02:32.698Z,99.90
2019-05-03T10:04:59.929Z,99.90
2019-05-03T10:07:27.090Z,99.90
2019-05-03T10:09:55.242Z,99.90
2019-05-03T10:12:25.536Z,99.90
2019-05-03T10:14:54.831Z,99.90
2019-05-03T10:17:48.220Z,99.90
2019-05-03T10:20:17.135Z,99.90
2019-05-03T10:22:44.411Z,99.90
2019-05-03T10:25:12.091Z,99.90
2019-05-03T10:27:46.001Z,99.90
2019-05-03T10:30:24.060Z,99.90
2019-05-03T10:32:57.239Z,99.90
2019-05-03T10:35:25.018Z,99.90
2019-05-03T10:37:54.915Z,99.90
2019-05-03T10:40:25.981Z,99.90
2019-05-03T10:42:55.278Z,99.90
2019-05-03T10:45:25.789Z,99.90
2019-05-03T10:47:52.459Z,99.90
2019-05-03T10:50:20.329Z,99.90
2019-05-03T10:53:00.285Z,99.90
2019-05-03T10:55:27.381Z,99.90
2019-05-03T10:58:26.195Z,99.90
2019-05-03T11:00:56.619Z,99.90
2019-05-03T11:03:23.271Z,99.90
2019-05-03T11:05:51.154Z,99.90
2019-05-03T11:08:19.023Z,99.90
2019-05-03T11:10:46.247Z,99.90
2019-05-03T11:13:15.426Z,99.90
2019-05-03T11:15:44.435Z,99.90
2019-05-03T11:18:12.052Z,99.90
2019-05-03T11:20:40.238Z,99.90
2019-05-03T11:23:07.854Z,99.90
2019-05-03T11:25:35.891Z,99.90
2019-05-03T11:28:10.227Z,99.90
2019-05-03T11:30:37.546Z,99.90
2019-05-03T11:33:09.316Z,99.90
2019-05-03T11:35:44.667Z,99.90
2019-05-03T11:38:26.951Z,99.90
2019-05-03T11:40:56.052Z,99.90
2019-05-03T11:43:24.691Z,99.90
2019-05-03T11:45:52.506Z,99.90
2019-05-03T11:48:19.920Z,99.90
2019-05-03T11:50:47.428Z,99.90
2019-05-03T11:53:14.894Z,98.30
2019-05-03T11:55:42.219Z,99.90
2019-05-03T11:58:21.092Z,99.20
2019-05-03T12:01:11.234Z,99.30
2019-05-03T12:03:30.424Z,96.50
2019-05-03T12:05:59.434Z,96.70
2019-05-03T12:08:27.050Z,99.00
2019-05-03T12:10:58.664Z,98.70
2019-05-03T12:13:29.504Z,97.30
2019-05-03T12:15:57.129Z,95.70
2019-05-03T12:18:25.155Z,94.40
2019-05-03T12:20:56.567Z,93.00
2019-05-03T12:23:25.393Z,93.20
2019-05-03T12:25:53.309Z,94.50
2019-05-03T12:28:21.323Z,97.20
2019-05-03T12:30:48.872Z,98.00
2019-05-03T12:33:16.146Z,96.90
2019-05-03T12:35:43.409Z,95.50
2019-05-03T12:38:11.500Z,96.20
2019-05-03T12:40:39.331Z,93.20
2019-05-03T12:43:07.123Z,85.20
2019-05-03T12:45:35.423Z,85.90
2019-05-03T12:48:04.883Z,91.60
2019-05-03T12:50:34.617Z,90.80
2019-05-03T12:53:01.754Z,95.10
2019-05-03T12:55:29.954Z,93.80
2019-05-03T12:57:57.204Z,89.20
2019-05-03T13:00:36.431Z,93.60
2019-05-03T13:03:08.512Z,90.00
2019-05-03T13:05:36.047Z,91.00
2019-05-03T13:08:30.319Z,91.50
2019-05-03T13:10:58.536Z,91.80
2019-05-03T13:13:26.127Z,90.30
2019-05-03T13:15:55.034Z,90.10
2019-05-03T13:18:22.423Z,90.50
2019-05-03T13:20:50.635Z,86.90
2019-05-03T13:23:18.506Z,94.00
2019-05-03T13:25:46.371Z,94.10
2019-05-03T13:28:15.317Z,93.60
2019-05-03T13:30:45.347Z,91.10
2019-05-03T13:33:14.976Z,90.50
2019-05-03T13:35:44.611Z,88.10
2019-05-03T13:38:12.180Z,91.00
2019-05-03T13:40:39.703Z,90.60
2019-05-03T13:43:07.292Z,91.40
2019-05-03T13:45:35.623Z,91.60
2019-05-03T13:48:04.973Z,93.60
2019-05-03T13:50:32.491Z,92.70
2019-05-03T13:52:59.976Z,91.90
2019-05-03T13:55:27.223Z,92.80
2019-05-03T13:57:54.919Z,91.20
2019-05-03T14:00:24.510Z,92.20
2019-05-03T14:02:51.917Z,94.20
2019-05-03T14:05:19.434Z,90.30
2019-05-03T14:07:47.346Z,92.30
2019-05-03T14:10:14.918Z,92.10
2019-05-03T14:12:42.554Z,95.10
2019-05-03T14:15:10.652Z,92.50
2019-05-03T14:17:37.854Z,93.70
2019-05-03T14:20:16.941Z,95.20
2019-05-03T14:22:45.414Z,93.60
2019-05-03T14:25:12.669Z,93.20
2019-05-03T14:27:39.866Z,94.30
2019-05-03T14:30:07.894Z,94.40
2019-05-03T14:32:36.859Z,93.90
2019-05-03T14:35:04.747Z,94.10
2019-05-03T14:37:32.335Z,94.40
2019-05-03T14:40:00.310Z,93.50
2019-05-03T14:42:28.203Z,94.70
2019-05-03T14:44:55.722Z,95.30
2019-05-03T14:47:25.236Z,96.50
2019-05-03T14:49:54.612Z,95.00
2019-05-03T14:52:22.647Z,94.60
2019-05-03T14:54:52.972Z,96.00
2019-05-03T14:57:27.611Z,97.20
2019-05-03T15:00:12.252Z,96.80
2019-05-03T15:02:52.358Z,94.20
2019-05-03T15:05:19.722Z,97.20
2019-05-03T15:07:49.480Z,97.00
2019-05-03T15:10:16.713Z,97.90
2019-05-03T15:12:45.166Z,97.30
2019-05-03T15:15:14.636Z,97.00
2019-05-03T15:17:42.346Z,96.30
2019-05-03T15:20:10.072Z,96.10
2019-05-03T15:22:37.251Z,97.00
2019-05-03T15:25:05.157Z,95.60
2019-05-03T15:27:35.269Z,95.60
2019-05-03T15:30:04.723Z,96.50
2019-05-03T15:32:31.643Z,96.20
2019-05-03T15:34:59.211Z,96.30
2019-05-03T15:37:27.090Z,96.90
2019-05-03T15:39:54.743Z,98.20
2019-05-03T15:42:23.165Z,97.10
2019-05-03T15:44:58.218Z,97.30
2019-05-03T15:47:35.789Z,98.60
2019-05-03T15:50:04.848Z,99.00
2019-05-03T15:52:32.222Z,96.60
2019-05-03T15:55:00.626Z,97.30
2019-05-03T15:57:27.846Z,97.00
2019-05-03T15:59:55.420Z,97.60
2019-05-03T16:02:24.717Z,98.10
2019-05-03T16:04:52.418Z,99.00
2019-05-03T16:07:19.679Z,99.90
2019-05-03T16:09:46.925Z,98.90
2019-05-03T16:12:15.099Z,98.30
2019-05-03T16:14:44.433Z,99.20
2019-05-03T16:17:12.274Z,99.50
2019-05-03T16:19:39.835Z,99.90
2019-05-03T16:22:07.506Z,99.90
2019-05-03T16:24:35.702Z,99.90
2019-05-03T16:27:14.330Z,99.90
2019-05-03T16:29:44.566Z,99.90
2019-05-03T16:32:12.007Z,99.90
2019-05-03T16:34:39.567Z,99.90
2019-05-03T16:37:06.768Z,99.90
2019-05-03T16:39:35.294Z,99.90
2019-05-03T16:42:04.278Z,99.90
2019-05-03T16:44:35.015Z,99.90
2019-05-03T16:47:06.981Z,99.90
2019-05-03T16:49:32.030Z,99.90
2019-05-03T16:51:59.603Z,99.90
2019-05-03T16:54:27.875Z,99.90
2019-05-03T16:56:56.935Z,99.90
2019-05-03T16:59:24.801Z,99.90
2019-05-03T17:01:52.497Z,99.90
2019-05-03T17:04:27.591Z,99.90
2019-05-03T17:07:11.619Z,99.90
2019-05-03T17:09:42.760Z,99.90
2019-05-03T17:12:25.532Z,99.90
2019-05-03T17:14:54.704Z,99.90
2019-05-03T17:17:25.190Z,99.90
2019-05-03T17:19:54.981Z,99.90
2019-05-03T17:22:25.029Z,99.90
2019-05-03T17:24:52.026Z,99.90
2019-05-03T17:27:19.922Z,99.90
2019-05-03T17:29:47.043Z,99.90
2019-05-03T17:32:15.348Z,99.90
2019-05-03T17:34:43.086Z,99.90
2019-05-03T17:37:11.035Z,99.90
2019-05-03T17:40:16.590Z,99.90
2019-05-03T17:43:02.196Z,99.90
2019-05-03T17:45:35.085Z,99.90
2019-05-03T17:48:04.497Z,99.90
2019-05-03T17:50:32.375Z,99.90
2019-05-03T17:53:22.123Z,99.90
